Time;durP1;ratioP1;P1;durP2;ratioP2;P2;SDS_P1;SDS_P2;PMS_P1;PMS_P2;Temp;Humidity;BMP_temperature;BMP_pressure;BME280_temperature;BME280_humidity;BME280_pressure;Samples;Min_cycle;Max_cycle;Signal;HPM_P1;HPM_P2
2021/12/26 00:01:34;;;;;;;68.72;42.45;;;;;;;4.94;100.00;96869.88;5110903;28;20066;-75
2021/12/26 00:04:00;;;;;;;68.38;42.00;;;;;;;5.04;100.00;96875.19;5112529;28;20023;-76
2021/12/26 00:06:28;;;;;;;68.85;40.85;;;;;;;4.96;100.00;96880.41;5115356;28;20111;-75
2021/12/26 00:08:55;;;;;;;52.70;35.45;;;;;;;4.93;100.00;96873.66;5112595;28;20020;-78
2021/12/26 00:11:23;;;;;;;60.38;37.25;;;;;;;4.98;100.00;96881.72;5111795;28;20164;-75
2021/12/26 00:13:50;;;;;;;58.38;35.80;;;;;;;5.01;100.00;96883.06;5111420;28;20047;-73
2021/12/26 00:16:17;;;;;;;61.15;37.22;;;;;;;4.97;100.00;96887.44;5111317;28;20032;-75
2021/12/26 00:18:45;;;;;;;59.97;36.63;;;;;;;4.89;100.00;96883.44;5111438;28;20098;-75
2021/12/26 00:21:15;;;;;;;60.55;37.55;;;;;;;4.76;100.00;96876.78;5111221;28;20066;-73
2021/12/26 00:23:41;;;;;;;63.00;37.15;;;;;;;4.75;100.00;96877.09;5111093;28;20030;-76
2021/12/26 00:26:07;;;;;;;57.30;36.88;;;;;;;4.73;100.00;96885.47;5111340;28;20117;-75
2021/12/26 00:28:32;;;;;;;63.72;38.28;;;;;;;4.79;100.00;96887.06;5110977;28;20059;-76
2021/12/26 00:30:58;;;;;;;61.42;37.72;;;;;;;4.74;100.00;96886.28;5111709;28;20049;-76
2021/12/26 00:33:24;;;;;;;57.60;36.80;;;;;;;4.82;100.00;96894.59;5111313;28;20023;-77
2021/12/26 00:35:50;;;;;;;55.28;36.10;;;;;;;4.82;100.00;96899.25;5114160;28;20083;-76
2021/12/26 00:38:16;;;;;;;57.95;35.88;;;;;;;4.86;100.00;96901.06;5115352;28;20038;-75
2021/12/26 00:40:41;;;;;;;54.53;33.22;;;;;;;4.81;100.00;96903.84;5121468;28;20028;-78
2021/12/26 00:43:07;;;;;;;59.13;35.72;;;;;;;4.90;100.00;96903.22;5117977;28;20080;-75
2021/12/26 00:45:33;;;;;;;54.67;33.88;;;;;;;4.92;100.00;96896.41;5117031;28;20494;-75
2021/12/26 00:47:59;;;;;;;48.20;32.28;;;;;;;4.90;100.00;96895.09;5116916;28;20114;-76
2021/12/26 00:50:29;;;;;;;49.50;31.45;;;;;;;4.98;100.00;96903.41;5115478;28;20032;-74
2021/12/26 00:52:56;;;;;;;53.78;33.38;;;;;;;4.99;100.00;96907.72;5116910;28;20050;-72
2021/12/26 00:55:22;;;;;;;44.08;28.58;;;;;;;4.98;100.00;96895.28;5115027;28;20020;-75
2021/12/26 00:57:48;;;;;;;42.17;27.75;;;;;;;5.07;100.00;96907.13;5115021;28;20024;-75
2021/12/26 01:00:22;;;;;;;40.75;26.63;;;;;;;5.04;100.00;96912.31;5118730;28;20141;-81
2021/12/26 01:02:48;;;;;;;42.50;27.38;;;;;;;5.05;100.00;96914.72;5117827;28;20144;-74
2021/12/26 01:05:14;;;;;;;39.58;25.42;;;;;;;5.10;100.00;96908.47;5114416;28;20111;-75
2021/12/26 01:10:07;;;;;;;38.40;25.63;;;;;;;5.17;100.00;96912.44;5115058;28;20019;-74
2021/12/26 01:12:33;;;;;;;40.28;24.95;;;;;;;5.20;100.00;96917.28;5113861;28;20468;-75
2021/12/26 01:15:04;;;;;;;35.20;22.58;;;;;;;5.11;100.00;96918.19;5115294;28;20063;-73
2021/12/26 01:17:30;;;;;;;34.70;22.30;;;;;;;5.16;100.00;96927.09;5115247;28;20023;-76
2021/12/26 01:19:56;;;;;;;33.85;21.15;;;;;;;5.17;100.00;96931.41;5115003;28;20096;-74
2021/12/26 01:22:23;;;;;;;28.92;20.48;;;;;;;5.15;100.00;96919.25;5115055;28;20123;-73
2021/12/26 01:24:55;;;;;;;28.90;18.15;;;;;;;5.20;100.00;96924.63;5114858;28;20024;-74
2021/12/26 01:27:23;;;;;;;29.27;19.17;;;;;;;5.14;100.00;96929.25;5114539;28;20016;-75
2021/12/26 01:29:48;;;;;;;26.58;16.15;;;;;;;5.15;100.00;96933.59;5114365;28;20024;-77
2021/12/26 01:32:14;;;;;;;13.05;6.82;;;;;;;5.15;100.00;96938.22;5115305;28;20105;-76
2021/12/26 01:34:40;;;;;;;10.65;6.38;;;;;;;5.17;100.00;96939.53;5118097;28;20023;-75
2021/12/26 01:37:05;;;;;;;4.85;2.92;;;;;;;5.12;100.00;96945.00;5123050;28;20019;-80
2021/12/26 01:39:31;;;;;;;4.80;3.03;;;;;;;5.08;100.00;96946.66;5115859;28;20035;-76
2021/12/26 01:42:01;;;;;;;5.18;2.70;;;;;;;5.05;100.00;96947.25;5114650;28;20066;-75
2021/12/26 01:44:28;;;;;;;4.45;2.58;;;;;;;5.04;100.00;96950.25;5114223;28;20039;-76
2021/12/26 01:46:53;;;;;;;3.78;2.22;;;;;;;5.01;100.00;96956.25;5113174;28;20123;-75
2021/12/26 01:49:22;;;;;;;4.22;2.30;;;;;;;4.93;100.00;96960.34;5114222;27;20473;-77
2021/12/26 01:51:50;;;;;;;4.22;2.25;;;;;;;4.97;100.00;96963.31;5114060;27;20097;-74
2021/12/26 01:54:29;;;;;;;3.03;1.67;;;;;;;4.89;100.00;96963.94;5114025;28;20380;-75
2021/12/26 01:56:54;;;;;;;3.92;2.30;;;;;;;4.89;100.00;96964.72;5115961;28;20024;-75
2021/12/26 01:59:20;;;;;;;4.22;2.00;;;;;;;4.79;100.00;96967.53;5113718;28;20369;-75
2021/12/26 02:01:45;;;;;;;4.70;2.10;;;;;;;4.75;100.00;96963.75;5114131;28;20582;-79
2021/12/26 02:04:11;;;;;;;3.33;1.77;;;;;;;4.79;100.00;96970.22;5113739;28;20028;-75
2021/12/26 02:06:37;;;;;;;4.30;1.95;;;;;;;4.74;100.00;96968.34;5113764;28;20024;-74
2021/12/26 02:09:03;;;;;;;5.18;2.40;;;;;;;4.72;100.00;96980.56;5113851;28;20460;-75
2021/12/26 02:11:29;;;;;;;4.18;1.95;;;;;;;4.70;100.00;96975.41;5112123;28;20024;-75
2021/12/26 02:13:54;;;;;;;2.90;1.52;;;;;;;4.71;100.00;96968.09;5112594;28;20026;-76
2021/12/26 02:16:23;;;;;;;3.53;1.80;;;;;;;4.59;100.00;96970.38;5113583;28;20019;-76
2021/12/26 02:18:49;;;;;;;5.35;2.08;;;;;;;4.60;100.00;96982.81;5113718;27;20492;-74
2021/12/26 02:21:21;;;;;;;3.45;1.83;;;;;;;4.59;100.00;96975.78;5113316;27;20059;-76
2021/12/26 02:28:46;;;;;;;4.65;2.38;;;;;;;4.59;100.00;96983.91;5113426;28;20038;-75
2021/12/26 02:31:13;;;;;;;4.03;2.15;;;;;;;4.61;100.00;97000.66;5119722;28;20123;-76
2021/12/26 02:33:39;;;;;;;2.83;1.60;;;;;;;4.60;100.00;96994.47;5123352;28;20065;-75
2021/12/26 02:36:06;;;;;;;3.08;1.80;;;;;;;4.54;100.00;96997.50;5115266;28;20023;-77
2021/12/26 02:38:33;;;;;;;5.28;2.75;;;;;;;4.56;100.00;97003.41;5113830;28;20027;-75
2021/12/26 02:40:59;;;;;;;3.90;2.13;;;;;;;4.55;100.00;97002.59;5113417;28;20491;-74
2021/12/26 02:43:27;;;;;;;4.22;2.42;;;;;;;4.49;100.00;97005.63;5113110;28;20023;-76
2021/12/26 02:45:53;;;;;;;4.53;2.10;;;;;;;4.46;100.00;97001.59;5113198;28;20471;-73
2021/12/26 02:48:19;;;;;;;4.00;1.90;;;;;;;4.41;100.00;97012.44;5113353;28;20023;-74
2021/12/26 02:50:50;;;;;;;4.95;2.08;;;;;;;4.38;100.00;97006.78;5115104;28;20421;-74
2021/12/26 02:53:20;;;;;;;4.45;2.40;;;;;;;4.42;100.00;97021.38;5113936;28;20036;-73
2021/12/26 02:55:51;;;;;;;4.32;2.47;;;;;;;4.48;100.00;97028.38;5111071;28;20020;-74
2021/12/26 02:58:17;;;;;;;3.47;1.90;;;;;;;4.58;100.00;97028.31;5111268;28;20063;-74
2021/12/26 03:00:47;;;;;;;3.75;2.05;;;;;;;4.58;100.00;97022.91;5112282;27;20058;-75
2021/12/26 03:03:14;;;;;;;5.03;2.10;;;;;;;4.62;100.00;97034.78;5113314;28;20048;-73
2021/12/26 03:05:43;;;;;;;4.78;1.98;;;;;;;4.61;100.00;97038.59;5112043;28;20039;-77
2021/12/26 03:08:12;;;;;;;4.45;1.92;;;;;;;4.49;100.00;97030.00;5112227;28;20073;-74
2021/12/26 03:10:39;;;;;;;3.85;2.22;;;;;;;4.58;100.00;97033.72;5112602;28;20024;-73
2021/12/26 03:13:08;;;;;;;4.88;2.53;;;;;;;4.47;100.00;97033.00;5112256;28;20034;-73
2021/12/26 03:15:38;;;;;;;3.42;1.70;;;;;;;4.42;100.00;97034.91;5112458;28;20032;-76
2021/12/26 03:18:04;;;;;;;8.68;2.38;;;;;;;4.38;100.00;97033.84;5112223;28;20026;-74
2021/12/26 03:20:37;;;;;;;3.92;2.00;;;;;;;4.44;100.00;97038.16;5112093;28;20395;-75
2021/12/26 03:23:03;;;;;;;3.92;2.20;;;;;;;4.38;100.00;97039.25;5112196;28;20130;-77
2021/12/26 03:25:33;;;;;;;4.18;2.20;;;;;;;4.32;100.00;97036.56;5112201;28;20023;-75
2021/12/26 03:28:00;;;;;;;11.10;3.88;;;;;;;4.31;100.00;97043.09;5112141;28;20622;-73
2021/12/26 03:30:28;;;;;;;4.43;2.10;;;;;;;4.24;100.00;97034.44;5111976;28;20437;-74
2021/12/26 03:32:55;;;;;;;3.67;1.77;;;;;;;4.33;100.00;97050.91;5112445;28;20126;-75
2021/12/26 03:35:23;;;;;;;3.72;1.90;;;;;;;4.27;100.00;97047.44;5112131;28;20019;-74
2021/12/26 03:37:48;;;;;;;3.75;2.00;;;;;;;4.27;100.00;97057.44;5112180;28;20019;-73
2021/12/26 03:40:14;;;;;;;2.90;1.65;;;;;;;4.22;100.00;97055.56;5111781;28;20465;-74
2021/12/26 03:42:41;;;;;;;3.03;1.80;;;;;;;4.21;100.00;97062.06;5111900;28;20024;-75
2021/12/26 03:45:07;;;;;;;4.70;1.70;;;;;;;4.17;100.00;97058.28;5112651;28;20496;-77
2021/12/26 03:47:34;;;;;;;3.00;1.50;;;;;;;4.20;100.00;97057.72;5117965;28;20028;-76
2021/12/26 03:50:00;;;;;;;3.22;1.60;;;;;;;4.11;100.00;97055.88;5119876;28;20024;-76
2021/12/26 03:52:26;;;;;;;3.58;1.60;;;;;;;4.15;100.00;97063.19;5112077;28;20100;-74
2021/12/26 03:54:53;;;;;;;4.05;1.70;;;;;;;4.18;100.00;97065.31;5111547;28;20081;-73
2021/12/26 03:57:19;;;;;;;2.97;1.65;;;;;;;4.17;100.00;97066.41;5111769;28;20084;-75
2021/12/26 03:59:44;;;;;;;3.53;2.10;;;;;;;4.09;100.00;97064.28;5111702;28;20035;-74
2021/12/26 04:02:15;;;;;;;3.70;1.92;;;;;;;4.15;100.00;97071.28;5112173;28;20114;-74
2021/12/26 04:04:42;;;;;;;2.88;1.60;;;;;;;4.12;100.00;97073.72;5111676;28;20023;-74
2021/12/26 04:07:08;;;;;;;3.30;1.70;;;;;;;4.10;100.00;97078.63;5111616;28;20030;-74
2021/12/26 04:09:33;;;;;;;4.18;1.98;;;;;;;4.09;100.00;97080.50;5110848;28;20084;-75
2021/12/26 04:11:59;;;;;;;3.65;2.00;;;;;;;4.14;100.00;97093.19;5111620;28;20035;-74
2021/12/26 04:14:24;;;;;;;4.90;2.05;;;;;;;4.07;100.00;97077.25;5111626;28;20451;-74
2021/12/26 04:16:50;;;;;;;2.97;1.65;;;;;;;4.04;100.00;97087.84;5111402;28;20028;-73
2021/12/26 04:19:15;;;;;;;4.13;1.90;;;;;;;4.03;100.00;97103.25;5111295;28;20032;-74
2021/12/26 04:21:43;;;;;;;3.45;2.00;;;;;;;3.98;100.00;97100.56;5112664;28;21539;-74
2021/12/26 04:24:09;;;;;;;4.95;1.90;;;;;;;3.96;100.00;97099.22;5113440;28;20028;-76
2021/12/26 04:26:34;;;;;;;3.67;2.00;;;;;;;3.96;100.00;97101.91;5113616;28;20427;-73
2021/12/26 04:29:00;;;;;;;4.20;1.80;;;;;;;3.88;100.00;97106.00;5112848;28;20024;-74
2021/12/26 04:31:25;;;;;;;4.70;2.28;;;;;;;3.94;100.00;97104.91;5113754;28;20049;-74
2021/12/26 04:33:51;;;;;;;4.22;2.15;;;;;;;3.94;100.00;97104.91;5113555;28;20051;-73
2021/12/26 04:36:18;;;;;;;8.30;3.10;;;;;;;4.01;100.00;97110.81;5112980;28;20026;-76
2021/12/26 04:38:43;;;;;;;5.70;2.10;;;;;;;4.08;100.00;97119.47;5111803;28;20436;-75
2021/12/26 04:41:10;;;;;;;4.22;2.70;;;;;;;4.02;100.00;97120.56;5112981;28;20031;-76
2021/12/26 04:43:37;;;;;;;4.25;1.80;;;;;;;3.99;100.00;97117.59;5111227;28;20494;-75
2021/12/26 04:46:07;;;;;;;3.63;1.83;;;;;;;3.98;100.00;97108.66;5111559;28;20012;-75
2021/12/26 04:48:39;;;;;;;4.50;1.90;;;;;;;3.97;100.00;97104.34;5111283;28;20020;-75
2021/12/26 04:51:06;;;;;;;3.55;2.00;;;;;;;3.94;100.00;97110.31;5111256;28;20051;-74
2021/12/26 04:53:33;;;;;;;5.32;1.92;;;;;;;3.96;100.00;97110.84;5110964;28;20044;-76
2021/12/26 04:55:58;;;;;;;3.90;2.13;;;;;;;3.94;100.00;97110.31;5110784;28;20039;-74
2021/12/26 04:58:25;;;;;;;3.97;1.92;;;;;;;3.92;100.00;97117.06;5111498;28;20023;-75
2021/12/26 05:00:50;;;;;;;4.90;2.15;;;;;;;3.91;100.00;97116.28;5120497;28;20032;-78
2021/12/26 05:03:16;;;;;;;5.32;2.28;;;;;;;3.93;100.00;97126.81;5123213;28;20379;-77
2021/12/26 05:05:43;;;;;;;4.95;2.33;;;;;;;3.94;100.00;97121.13;5111738;28;20057;-76
2021/12/26 05:08:10;;;;;;;3.60;1.98;;;;;;;3.86;100.00;97128.97;5111124;28;20031;-77
2021/12/26 05:10:35;;;;;;;3.97;2.08;;;;;;;3.76;100.00;97129.78;5111805;28;20031;-76
2021/12/26 05:13:02;;;;;;;6.00;2.03;;;;;;;3.82;100.00;97133.31;5112696;28;20050;-76
2021/12/26 05:15:28;;;;;;;13.35;5.90;;;;;;;3.81;100.00;97146.03;5111208;28;20055;-75
2021/12/26 05:17:54;;;;;;;4.82;2.75;;;;;;;3.79;100.00;97146.28;5110927;28;20549;-75
2021/12/26 05:20:21;;;;;;;7.10;3.45;;;;;;;3.79;100.00;97153.59;5112390;28;20023;-74
2021/12/26 05:22:48;;;;;;;6.07;2.30;;;;;;;3.72;100.00;97153.06;5114285;28;20042;-75
2021/12/26 05:25:14;;;;;;;5.00;2.97;;;;;;;3.71;100.00;97149.56;5115248;28;20118;-79
2021/12/26 05:27:40;;;;;;;3.90;2.10;;;;;;;3.74;100.00;97161.72;5120593;28;20059;-74
2021/12/26 05:30:08;;;;;;;4.80;2.00;;;;;;;3.68;100.00;97160.09;5114824;28;20136;-75
2021/12/26 05:32:34;;;;;;;8.15;4.60;;;;;;;3.65;100.00;97160.63;5114684;28;20039;-75
2021/12/26 05:35:00;;;;;;;8.27;4.10;;;;;;;3.74;100.00;97176.06;5114407;28;20024;-76
2021/12/26 05:37:25;;;;;;;16.08;9.27;;;;;;;3.71;100.00;97171.19;5114213;28;20020;-75
2021/12/26 05:39:51;;;;;;;3.80;1.90;;;;;;;3.76;100.00;97183.88;5113930;27;20386;-75
2021/12/26 05:42:16;;;;;;;3.10;1.83;;;;;;;3.71;100.00;97186.59;5114110;28;20030;-77
2021/12/26 05:44:43;;;;;;;3.35;1.55;;;;;;;3.61;100.00;97179.28;5114180;28;20539;-74
2021/12/26 05:47:10;;;;;;;4.60;1.88;;;;;;;3.69;100.00;97186.06;5114196;28;20618;-75
2021/12/26 05:49:35;;;;;;;4.35;2.13;;;;;;;3.67;100.00;97191.72;5113971;28;20498;-74
2021/12/26 05:52:00;;;;;;;4.18;1.80;;;;;;;3.68;100.00;97185.25;5113943;27;20012;-76
2021/12/26 05:54:26;;;;;;;4.72;2.13;;;;;;;3.64;100.00;97186.03;5113554;28;20042;-74
2021/12/26 05:56:51;;;;;;;4.10;1.63;;;;;;;3.61;100.00;97186.59;5113937;28;20027;-77
2021/12/26 05:59:17;;;;;;;2.80;1.63;;;;;;;3.61;100.00;97206.31;5113753;27;20024;-74
2021/12/26 06:01:42;;;;;;;4.32;2.10;;;;;;;3.60;100.00;97201.22;5114085;28;20028;-74
2021/12/26 06:04:08;;;;;;;3.15;1.73;;;;;;;3.62;100.00;97205.25;5114324;28;20121;-76
2021/12/26 06:06:33;;;;;;;3.20;1.63;;;;;;;3.67;100.00;97207.94;5116462;28;20088;-74
2021/12/26 06:08:59;;;;;;;4.28;1.92;;;;;;;3.66;100.00;97205.53;5113539;28;20036;-75
2021/12/26 06:11:24;;;;;;;3.60;1.60;;;;;;;3.67;100.00;97215.25;5113957;28;20059;-74
2021/12/26 06:13:49;;;;;;;2.60;1.52;;;;;;;3.65;100.00;97209.31;5113449;28;20023;-76
2021/12/26 06:16:15;;;;;;;3.03;1.60;;;;;;;3.64;100.00;97211.19;5113596;28;20046;-74
2021/12/26 06:18:40;;;;;;;3.65;1.70;;;;;;;3.58;100.00;97209.56;5113847;28;20043;-75
2021/12/26 06:21:06;;;;;;;3.80;1.70;;;;;;;3.56;100.00;97198.22;5098006;28;20130;-75
2021/12/26 06:23:31;;;;;;;4.00;1.80;;;;;;;3.55;100.00;97207.41;5113056;28;20020;-76
2021/12/26 06:25:57;;;;;;;3.47;1.70;;;;;;;3.56;100.00;97210.94;5106883;28;20060;-74
2021/12/26 06:28:22;;;;;;;3.38;1.75;;;;;;;3.49;100.00;97199.56;5092805;28;20036;-74
2021/12/26 06:30:47;;;;;;;4.57;2.20;;;;;;;3.49;100.00;97216.59;5092762;28;20449;-73
2021/12/26 06:33:13;;;;;;;4.22;2.15;;;;;;;3.54;100.00;97213.09;5092650;28;20027;-74
2021/12/26 06:35:38;;;;;;;3.95;2.00;;;;;;;3.54;100.00;97213.09;5092393;28;20024;-75
2021/12/26 06:38:04;;;;;;;4.32;1.98;;;;;;;3.50;100.00;97220.13;5097834;28;20052;-74
2021/12/26 06:40:32;;;;;;;4.47;2.25;;;;;;;3.46;100.00;97221.72;5112726;28;20031;-75
2021/12/26 06:42:58;;;;;;;5.30;2.65;;;;;;;3.52;100.00;97228.75;5112617;28;20387;-74
2021/12/26 06:45:23;;;;;;;5.72;2.55;;;;;;;3.52;100.00;97243.09;5112907;28;20027;-74
2021/12/26 06:47:51;;;;;;;5.07;2.50;;;;;;;3.58;100.00;97241.19;5112456;28;20027;-74
2021/12/26 06:50:19;;;;;;;4.55;2.35;;;;;;;3.59;100.00;97240.13;5113743;28;20023;-75
2021/12/26 06:52:45;;;;;;;5.28;1.90;;;;;;;3.61;100.00;97240.66;5114000;28;20040;-75
2021/12/26 06:55:10;;;;;;;3.95;2.10;;;;;;;3.54;100.00;97234.72;5112360;28;21082;-74
2021/12/26 06:57:37;;;;;;;4.88;2.00;;;;;;;3.58;100.00;97242.00;5112388;28;20106;-76
2021/12/26 07:00:06;;;;;;;22.77;9.85;;;;;;;3.57;100.00;97239.59;5112508;28;20391;-75
2021/12/26 07:02:32;;;;;;;55.38;28.40;;;;;;;3.57;100.00;97226.06;5114914;28;20036;-74
2021/12/26 07:04:57;;;;;;;34.22;15.70;;;;;;;3.54;100.00;97234.72;5112804;28;20076;-76
2021/12/26 07:07:22;;;;;;;6.20;2.50;;;;;;;3.45;100.00;97241.72;5112219;28;20364;-75
2021/12/26 07:09:48;;;;;;;3.30;1.80;;;;;;;3.45;100.00;97242.53;5112976;28;20031;-74
2021/12/26 07:12:14;;;;;;;3.25;1.70;;;;;;;3.45;100.00;97247.13;5114576;28;20024;-76
2021/12/26 07:14:40;;;;;;;2.55;1.33;;;;;;;3.39;100.00;97250.88;5112351;28;20028;-76
2021/12/26 07:17:10;;;;;;;3.90;1.88;;;;;;;3.41;100.00;97254.16;5094883;28;20024;-77
2021/12/26 07:19:36;;;;;;;3.83;1.60;;;;;;;3.41;100.00;97262.25;5098487;28;20069;-73
2021/12/26 07:22:01;;;;;;;5.13;1.88;;;;;;;3.39;100.00;97272.50;5092097;28;20028;-75
2021/12/26 07:24:26;;;;;;;3.60;1.52;;;;;;;3.38;100.00;97282.53;5091830;28;20495;-73
2021/12/26 07:26:52;;;;;;;2.70;1.50;;;;;;;3.34;100.00;97275.22;5091802;28;20114;-75
2021/12/26 07:29:17;;;;;;;3.20;1.50;;;;;;;3.36;100.00;97281.16;5091454;28;20136;-75
2021/12/26 07:31:43;;;;;;;3.10;1.70;;;;;;;3.39;100.00;97286.03;5091377;28;20039;-75
2021/12/26 07:34:08;;;;;;;3.83;1.70;;;;;;;3.38;100.00;97279.00;5094800;28;20545;-75
2021/12/26 07:36:33;;;;;;;4.60;2.15;;;;;;;3.37;100.00;97278.19;5091334;28;20479;-75
2021/12/26 07:38:59;;;;;;;4.35;1.67;;;;;;;3.36;100.00;97281.16;5091203;28;20028;-74
2021/12/26 07:41:25;;;;;;;3.97;1.60;;;;;;;3.41;100.00;97295.50;5091174;28;20023;-75
2021/12/26 07:43:51;;;;;;;3.65;1.77;;;;;;;3.41;100.00;97300.09;5090505;28;20536;-73
2021/12/26 07:46:16;;;;;;;4.75;2.45;;;;;;;3.36;100.00;97287.38;5091073;28;20507;-74
2021/12/26 07:48:42;;;;;;;4.35;1.98;;;;;;;3.40;100.00;97295.75;5089759;28;20491;-75
2021/12/26 07:51:08;;;;;;;3.75;2.40;;;;;;;3.38;100.00;97300.63;5091173;28;20028;-75
2021/12/26 07:53:33;;;;;;;5.68;2.47;;;;;;;3.41;100.00;97302.81;5090831;28;20031;-75
2021/12/26 07:55:59;;;;;;;3.25;2.03;;;;;;;3.51;100.00;97306.31;5092075;28;20039;-75
2021/12/26 07:58:25;;;;;;;4.68;2.45;;;;;;;3.44;100.00;97310.38;5092070;28;20028;-76
2021/12/26 08:00:51;;;;;;;4.13;2.20;;;;;;;3.47;100.00;97315.25;5090803;28;20032;-75
2021/12/26 08:03:16;;;;;;;4.18;2.15;;;;;;;3.39;100.00;97308.47;5091090;28;20028;-75
2021/12/26 08:05:42;;;;;;;3.28;1.73;;;;;;;3.43;100.00;97314.16;5090976;28;20042;-75
2021/12/26 08:08:07;;;;;;;5.25;3.15;;;;;;;3.41;100.00;97321.72;5090820;28;20032;-74
2021/12/26 08:10:35;;;;;;;3.47;1.83;;;;;;;3.39;100.00;97313.88;5090812;28;20048;-74
2021/12/26 08:13:01;;;;;;;8.18;4.50;;;;;;;3.45;100.00;97317.38;5086869;28;20037;-75
2021/12/26 08:15:26;;;;;;;4.97;2.55;;;;;;;3.44;100.00;97322.00;5103540;28;20030;-75
2021/12/26 08:17:52;;;;;;;5.85;3.13;;;;;;;3.43;100.00;97330.38;5111058;28;20027;-74
2021/12/26 08:20:17;;;;;;;6.10;3.10;;;;;;;3.39;100.00;97340.06;5110929;28;20037;-74
2021/12/26 08:22:43;;;;;;;6.05;3.22;;;;;;;3.38;100.00;97336.59;5111037;28;20387;-75
2021/12/26 08:25:10;;;;;;;7.30;3.28;;;;;;;3.32;100.00;97328.72;5111115;28;20027;-73
2021/12/26 08:27:35;;;;;;;7.70;4.35;;;;;;;3.37;100.00;97336.84;5110957;28;20383;-73
2021/12/26 08:30:02;;;;;;;4.80;2.28;;;;;;;3.38;100.00;97328.47;5111088;28;22008;-73
2021/12/26 08:32:30;;;;;;;7.50;4.00;;;;;;;3.36;100.00;97317.09;5109973;28;20016;-77
2021/12/26 08:34:56;;;;;;;5.30;2.80;;;;;;;3.40;100.00;97320.91;5111197;28;20449;-75
2021/12/26 08:37:22;;;;;;;3.92;2.00;;;;;;;3.51;100.00;97327.94;5110920;28;20111;-75
2021/12/26 08:39:48;;;;;;;3.30;1.35;;;;;;;3.47;100.00;97326.06;5110477;28;20030;-77
2021/12/26 08:42:14;;;;;;;3.70;1.95;;;;;;;3.42;100.00;97326.03;5110907;28;20016;-75
2021/12/26 08:44:40;;;;;;;2.75;1.40;;;;;;;3.38;100.00;97333.06;5111105;28;20118;-75
2021/12/26 08:47:10;;;;;;;4.28;1.88;;;;;;;3.39;100.00;97332.78;5109538;28;20035;-75
2021/12/26 08:49:37;;;;;;;3.20;1.70;;;;;;;3.36;100.00;97324.38;5103107;28;20436;-76
2021/12/26 08:52:05;;;;;;;3.50;1.95;;;;;;;3.34;100.00;97331.97;5111807;28;20369;-79
2021/12/26 08:54:33;;;;;;;5.55;1.95;;;;;;;3.38;100.00;97333.06;5107826;28;20040;-74
2021/12/26 08:56:59;;;;;;;4.43;2.08;;;;;;;3.40;100.00;97333.59;5109164;28;20606;-71
2021/12/26 08:59:29;;;;;;;3.50;2.00;;;;;;;3.36;100.00;97324.38;5111820;28;20027;-76
2021/12/26 09:01:59;;;;;;;4.00;2.20;;;;;;;3.32;100.00;97339.53;5115678;28;20089;-84
2021/12/26 09:04:25;;;;;;;4.75;2.55;;;;;;;3.43;100.00;97338.47;5111558;28;20043;-83
2021/12/26 09:06:53;;;;;;;4.43;2.10;;;;;;;3.48;100.00;97342.00;5113603;28;20028;-78
2021/12/26 09:09:18;;;;;;;4.50;2.25;;;;;;;3.63;100.00;97349.38;5111971;28;20027;-79
2021/12/26 09:11:44;;;;;;;4.47;2.40;;;;;;;3.56;100.00;97344.22;5114858;28;20127;-83
2021/12/26 09:14:12;;;;;;;5.88;2.95;;;;;;;3.47;100.00;97351.22;5117170;28;20369;-83
2021/12/26 09:16:38;;;;;;;4.82;2.65;;;;;;;3.47;100.00;97358.50;5116022;28;20027;-81
2021/12/26 09:19:05;;;;;;;3.70;2.10;;;;;;;3.40;100.00;97363.34;5114232;28;20023;-76
2021/12/26 09:21:31;;;;;;;4.15;2.10;;;;;;;3.39;100.00;97364.41;5115645;27;20019;-80
2021/12/26 09:23:57;;;;;;;5.05;2.58;;;;;;;3.41;100.00;97364.97;5121736;28;20051;-84
2021/12/26 09:26:26;;;;;;;4.20;2.38;;;;;;;3.29;100.00;97358.97;5113403;28;20027;-83
2021/12/26 09:28:51;;;;;;;5.00;2.67;;;;;;;3.36;100.00;97359.53;5120003;28;20019;-77
2021/12/26 09:31:17;;;;;;;4.38;2.40;;;;;;;3.41;100.00;97359.56;5109577;28;20068;-81
2021/12/26 09:33:42;;;;;;;5.20;2.65;;;;;;;3.53;100.00;97369.06;5115102;28;20036;-83
2021/12/26 09:36:08;;;;;;;6.10;2.35;;;;;;;3.40;100.00;97352.53;5111501;28;20028;-85
2021/12/26 09:38:34;;;;;;;4.97;2.45;;;;;;;3.49;100.00;97362.56;5114054;28;20027;-77
2021/12/26 09:40:59;;;;;;;7.28;3.13;;;;;;;3.45;100.00;97361.44;5111888;28;20028;-78
2021/12/26 09:43:26;;;;;;;7.72;3.08;;;;;;;3.42;100.00;97361.16;5112764;28;20089;-79
2021/12/26 09:45:52;;;;;;;5.78;3.10;;;;;;;3.39;100.00;97354.41;5111852;28;20048;-77
2021/12/26 09:48:19;;;;;;;6.32;3.15;;;;;;;3.57;100.00;97362.03;5114564;28;20075;-83
2021/12/26 09:50:45;;;;;;;10.93;3.97;;;;;;;3.53;100.00;97354.75;5120836;28;20027;-86
2021/12/26 09:53:11;;;;;;;7.05;2.83;;;;;;;3.53;100.00;97349.34;5111976;28;20050;-82
2021/12/26 09:55:36;;;;;;;7.13;3.70;;;;;;;3.49;100.00;97345.53;5104920;28;20031;-82
2021/12/26 09:58:03;;;;;;;7.75;2.95;;;;;;;3.50;100.00;97347.97;5110888;28;20023;-80
2021/12/26 10:00:33;;;;;;;5.07;2.70;;;;;;;3.51;100.00;97338.75;5117536;28;20019;-75
2021/12/26 10:03:18;;;;;;;6.03;3.05;;;;;;;3.54;100.00;97350.97;5108586;28;20036;-75
2021/12/26 10:06:10;;;;;;;4.97;2.80;;;;;;;3.54;100.00;97346.34;5114347;28;20027;-75
2021/12/26 10:08:55;;;;;;;6.05;3.17;;;;;;;3.51;100.00;97343.38;5107635;28;20050;-77
2021/12/26 10:11:29;;;;;;;8.30;3.17;;;;;;;3.57;100.00;97353.94;5106452;28;20020;-76
2021/12/26 10:14:19;;;;;;;5.57;2.70;;;;;;;3.60;100.00;97352.59;5109165;28;20031;-76
2021/12/26 10:16:47;;;;;;;7.35;3.65;;;;;;;3.59;100.00;97340.97;5100539;28;20572;-77
2021/12/26 10:19:13;;;;;;;6.65;3.67;;;;;;;3.61;100.00;97340.69;5110968;28;20084;-75
2021/12/26 10:21:40;;;;;;;5.35;2.92;;;;;;;3.79;100.00;97346.41;5104841;28;20043;-80
2021/12/26 10:24:06;;;;;;;6.25;3.53;;;;;;;3.73;100.00;97347.50;5106734;28;20028;-76
2021/12/26 10:26:36;;;;;;;5.43;3.28;;;;;;;3.74;100.00;97335.59;5111503;27;20026;-76
2021/12/26 10:29:16;;;;;;;8.98;3.58;;;;;;;3.96;100.00;97343.50;5111801;28;20016;-75
2021/12/26 10:32:08;;;;;;;6.65;3.97;;;;;;;4.02;100.00;97339.72;5108748;28;20036;-75
2021/12/26 10:34:44;;;;;;;5.10;3.20;;;;;;;4.11;100.00;97346.22;5106312;28;20583;-76
2021/12/26 10:37:24;;;;;;;4.88;3.00;;;;;;;4.06;100.00;97337.28;5111546;28;20039;-75
2021/12/26 10:39:53;;;;;;;6.70;3.03;;;;;;;4.17;100.00;97336.19;5109833;28;20084;-74
2021/12/26 10:42:22;;;;;;;7.07;3.88;;;;;;;4.30;100.00;97333.78;5113063;28;20083;-80
2021/12/26 10:44:52;;;;;;;6.32;3.22;;;;;;;4.19;100.00;97340.28;5112375;28;20426;-75
2021/12/26 10:47:24;;;;;;;6.82;3.45;;;;;;;4.22;100.00;97338.94;5111724;28;20379;-75
2021/12/26 10:49:55;;;;;;;6.57;3.35;;;;;;;4.25;100.00;97333.78;5111109;28;20035;-76
2021/12/26 10:52:30;;;;;;;7.00;3.60;;;;;;;4.27;100.00;97331.63;5102933;28;20127;-74
2021/12/26 10:55:03;;;;;;;17.92;4.95;;;;;;;4.57;100.00;97335.41;5104209;28;20487;-74
2021/12/26 10:57:43;;;;;;;7.40;3.50;;;;;;;4.50;100.00;97334.84;5112759;28;20024;-75
2021/12/26 11:00:29;;;;;;;8.40;3.30;;;;;;;4.46;100.00;97331.88;5114998;28;20023;-80
2021/12/26 11:03:02;;;;;;;7.88;3.60;;;;;;;4.44;100.00;97325.94;5121271;27;20118;-81
2021/12/26 11:05:44;;;;;;;6.45;3.88;;;;;;;4.41;100.00;97314.84;5120776;28;20091;-83
2021/12/26 11:08:12;;;;;;;8.20;5.30;;;;;;;4.42;100.00;97319.19;5117343;28;20035;-75
2021/12/26 11:10:43;;;;;;;8.50;4.60;;;;;;;4.42;100.00;97319.19;5115477;28;20499;-82
2021/12/26 11:13:22;;;;;;;8.93;3.90;;;;;;;4.50;100.00;97318.63;5108854;28;20043;-81
2021/12/26 11:15:48;;;;;;;6.43;4.03;;;;;;;4.48;100.00;97323.50;5107586;28;20501;-82
2021/12/26 11:18:17;;;;;;;7.13;4.40;;;;;;;4.46;100.00;97317.53;5109316;28;20049;-75
2021/12/26 11:20:48;;;;;;;6.53;3.75;;;;;;;4.48;100.00;97315.38;5107641;28;20039;-75
2021/12/26 11:23:17;;;;;;;6.47;4.05;;;;;;;4.40;100.00;97307.78;5107864;28;20019;-74
2021/12/26 11:25:54;;;;;;;10.35;5.43;;;;;;;4.53;100.00;97318.06;5110359;28;20499;-75
2021/12/26 11:28:30;;;;;;;6.95;4.05;;;;;;;4.59;100.00;97311.56;5107023;28;20036;-77
2021/12/26 11:31:04;;;;;;;6.32;3.60;;;;;;;4.53;100.00;97309.94;5109162;28;20015;-75
2021/12/26 11:33:30;;;;;;;7.25;4.15;;;;;;;4.49;100.00;97308.84;5110950;28;20361;-75
2021/12/26 11:36:02;;;;;;;6.80;4.20;;;;;;;4.43;100.00;97310.75;5111863;28;20184;-77
2021/12/26 11:38:30;;;;;;;7.80;3.80;;;;;;;4.44;100.00;97301.56;5112576;28;20042;-74
2021/12/26 11:41:12;;;;;;;7.00;3.90;;;;;;;4.47;100.00;97305.63;5115459;28;20035;-74